Terminal Aerodrome Forecast
Issued by NWS Boise, ID

Home | Current Version | Previous Version | Text Only | Print | Product List | Glossary On
Versions: 1 2 3 4 5 6 7 8 9 10 11 12 13 14 15 16 17 18 19 20 21 22 23 24 25 26 27 28 29 30 31 32 33 34 35 36 37 38 39 40 41 42 43
000
FTUS45 KBOI 200534
TAFBNO
TAF
KBNO 200534Z 2006/2106 27005KT 6SM -SHRASN BR BKN020 OVC035
     FM200900 VRB03KT 6SM -SHRA BKN020 OVC030
     FM201300 VRB05KT 4SM -RA BR OVC020
     FM210100 22005KT P6SM -SHRA OVC025=

USA.gov is the U.S. government's official web portal to all federal, state and local government web resources and services.